sensor_id;sensor_type;location;lat;lon;timestamp;pressure;altitude;pressure_sealevel;temperature;humidity
63399;BME280;49533;-34.520;150.798;2022-12-31T00:01:29;100661.88;;;22.05;71.63
63399;BME280;49533;-34.520;150.798;2022-12-31T00:03:57;100668.97;;;22.06;71.62
63399;BME280;49533;-34.520;150.798;2022-12-31T00:06:28;100672.16;;;22.08;71.57
63399;BME280;49533;-34.520;150.798;2022-12-31T00:08:58;100674.97;;;22.11;71.85
63399;BME280;49533;-34.520;150.798;2022-12-31T00:11:29;100669.81;;;22.10;71.45
63399;BME280;49533;-34.520;150.798;2022-12-31T00:13:57;100672.22;;;22.11;71.68
63399;BME280;49533;-34.520;150.798;2022-12-31T00:16:28;100667.91;;;22.14;71.57
63399;BME280;49533;-34.520;150.798;2022-12-31T00:18:57;100662.75;;;22.16;71.46
63399;BME280;49533;-34.520;150.798;2022-12-31T00:21:26;100661.19;;;22.19;71.62
63399;BME280;49533;-34.520;150.798;2022-12-31T00:23:54;100663.56;;;22.17;71.69
63399;BME280;49533;-34.520;150.798;2022-12-31T00:26:23;100657.63;;;22.18;71.54
63399;BME280;49533;-34.520;150.798;2022-12-31T00:28:52;100656.84;;;22.18;71.37
63399;BME280;49533;-34.520;150.798;2022-12-31T00:31:22;100658.09;;;22.20;71.41
63399;BME280;49533;-34.520;150.798;2022-12-31T00:33:49;100652.19;;;22.22;71.32
63399;BME280;49533;-34.520;150.798;2022-12-31T00:36:20;100641.91;;;22.26;71.42
63399;BME280;49533;-34.520;150.798;2022-12-31T00:38:48;100648.66;;;22.28;71.55
63399;BME280;49533;-34.520;150.798;2022-12-31T00:41:17;100651.03;;;22.30;71.35
63399;BME280;49533;-34.520;150.798;2022-12-31T00:43:44;100639.19;;;22.33;71.39
63399;BME280;49533;-34.520;150.798;2022-12-31T00:46:14;100641.19;;;22.36;71.28
63399;BME280;49533;-34.520;150.798;2022-12-31T00:48:42;100644.38;;;22.38;71.48
63399;BME280;49533;-34.520;150.798;2022-12-31T00:51:13;100644.00;;;22.40;71.59
63399;BME280;49533;-34.520;150.798;2022-12-31T00:53:41;100653.88;;;22.41;71.54
63399;BME280;49533;-34.520;150.798;2022-12-31T00:56:13;100650.34;;;22.44;71.28
63399;BME280;49533;-34.520;150.798;2022-12-31T00:58:41;100648.78;;;22.46;71.21
63399;BME280;49533;-34.520;150.798;2022-12-31T01:01:11;100646.00;;;22.46;71.38
63399;BME280;49533;-34.520;150.798;2022-12-31T01:03:38;100642.44;;;22.46;71.09
63399;BME280;49533;-34.520;150.798;2022-12-31T01:06:06;100637.75;;;22.50;70.96
63399;BME280;49533;-34.520;150.798;2022-12-31T01:08:33;100642.03;;;22.44;71.36
63399;BME280;49533;-34.520;150.798;2022-12-31T01:11:01;100636.00;;;22.31;71.55
63399;BME280;49533;-34.520;150.798;2022-12-31T01:13:39;100634.09;;;22.35;72.06
63399;BME280;49533;-34.520;150.798;2022-12-31T01:16:09;100632.03;;;22.28;72.22
63399;BME280;49533;-34.520;150.798;2022-12-31T01:18:38;100631.59;;;22.19;72.24
63399;BME280;49533;-34.520;150.798;2022-12-31T01:21:06;100634.28;;;22.15;72.63
63399;BME280;49533;-34.520;150.798;2022-12-31T01:23:34;100641.47;;;22.20;72.70
63399;BME280;49533;-34.520;150.798;2022-12-31T01:26:03;100634.41;;;22.26;72.65
63399;BME280;49533;-34.520;150.798;2022-12-31T01:28:31;100626.06;;;22.19;72.68
63399;BME280;49533;-34.520;150.798;2022-12-31T01:31:02;100623.22;;;22.15;73.32
63399;BME280;49533;-34.520;150.798;2022-12-31T01:33:29;100628.06;;;22.22;72.64
63399;BME280;49533;-34.520;150.798;2022-12-31T01:36:01;100626.88;;;22.23;72.47
63399;BME280;49533;-34.520;150.798;2022-12-31T01:38:28;100626.41;;;22.18;72.39
63399;BME280;49533;-34.520;150.798;2022-12-31T01:40:56;100609.78;;;22.18;72.37
63399;BME280;49533;-34.520;150.798;2022-12-31T01:43:23;100608.19;;;22.13;72.44
63399;BME280;49533;-34.520;150.798;2022-12-31T01:45:52;100608.22;;;22.17;73.19
63399;BME280;49533;-34.520;150.798;2022-12-31T01:48:23;100610.25;;;22.23;72.82
63399;BME280;49533;-34.520;150.798;2022-12-31T01:50:52;100610.72;;;22.32;72.52
63399;BME280;49533;-34.520;150.798;2022-12-31T01:53:20;100609.16;;;22.35;71.80
63399;BME280;49533;-34.520;150.798;2022-12-31T01:55:56;100605.63;;;22.38;71.47
63399;BME280;49533;-34.520;150.798;2022-12-31T01:58:33;100603.63;;;22.39;70.89
63399;BME280;49533;-34.520;150.798;2022-12-31T02:01:01;100598.50;;;22.37;71.05
63399;BME280;49533;-34.520;150.798;2022-12-31T02:03:29;100597.31;;;22.42;70.77
63399;BME280;49533;-34.520;150.798;2022-12-31T02:06:04;100586.28;;;22.45;70.80
63399;BME280;49533;-34.520;150.798;2022-12-31T02:08:33;100579.97;;;22.45;70.39
63399;BME280;49533;-34.520;150.798;2022-12-31T02:11:01;100569.69;;;22.49;70.75
63399;BME280;49533;-34.520;150.798;2022-12-31T02:13:28;100564.16;;;22.49;70.41
63399;BME280;49533;-34.520;150.798;2022-12-31T02:16:08;100563.78;;;22.50;70.12
63399;BME280;49533;-34.520;150.798;2022-12-31T02:18:54;100562.59;;;22.51;70.05
63399;BME280;49533;-34.520;150.798;2022-12-31T02:21:37;100561.84;;;22.62;70.14
63399;BME280;49533;-34.520;150.798;2022-12-31T02:24:23;100563.47;;;22.66;69.94
63399;BME280;49533;-34.520;150.798;2022-12-31T02:27:06;100567.00;;;22.67;70.01
63399;BME280;49533;-34.520;150.798;2022-12-31T02:32:49;100547.22;;;22.65;69.57
63399;BME280;49533;-34.520;150.798;2022-12-31T02:35:26;100552.00;;;22.68;69.37
63399;BME280;49533;-34.520;150.798;2022-12-31T02:38:02;100559.50;;;22.64;68.48
63399;BME280;49533;-34.520;150.798;2022-12-31T02:40:33;100553.16;;;22.63;69.04
63399;BME280;49533;-34.520;150.798;2022-12-31T02:43:01;100548.81;;;22.69;69.38
63399;BME280;49533;-34.520;150.798;2022-12-31T02:45:33;100552.78;;;22.72;69.38
63399;BME280;49533;-34.520;150.798;2022-12-31T02:48:14;100544.50;;;22.72;69.04
63399;BME280;49533;-34.520;150.798;2022-12-31T02:50:56;100542.88;;;22.67;69.17
63399;BME280;49533;-34.520;150.798;2022-12-31T02:53:42;100537.34;;;22.67;69.08
63399;BME280;49533;-34.520;150.798;2022-12-31T02:56:24;100533.44;;;22.75;69.56
63399;BME280;49533;-34.520;150.798;2022-12-31T02:59:03;100543.72;;;22.82;69.51
63399;BME280;49533;-34.520;150.798;2022-12-31T03:01:49;100537.03;;;22.83;69.52
63399;BME280;49533;-34.520;150.798;2022-12-31T03:04:31;100536.25;;;22.86;69.40
63399;BME280;49533;-34.520;150.798;2022-12-31T03:07:02;100538.22;;;22.89;69.60
63399;BME280;49533;-34.520;150.798;2022-12-31T03:09:31;100537.84;;;22.91;69.14
63399;BME280;49533;-34.520;150.798;2022-12-31T03:11:59;100531.09;;;22.88;69.32
63399;BME280;49533;-34.520;150.798;2022-12-31T03:14:38;100546.91;;;22.88;69.14
63399;BME280;49533;-34.520;150.798;2022-12-31T03:17:05;100536.66;;;22.92;69.35
63399;BME280;49533;-34.520;150.798;2022-12-31T03:19:33;100535.47;;;22.89;69.03
63399;BME280;49533;-34.520;150.798;2022-12-31T03:22:12;100531.50;;;22.90;68.83
63399;BME280;49533;-34.520;150.798;2022-12-31T03:24:51;100542.19;;;22.95;68.91
63399;BME280;49533;-34.520;150.798;2022-12-31T03:27:29;100538.28;;;23.00;68.83
63399;BME280;49533;-34.520;150.798;2022-12-31T03:29:56;100534.28;;;22.94;68.20
63399;BME280;49533;-34.520;150.798;2022-12-31T03:32:24;100528.75;;;22.94;68.49
63399;BME280;49533;-34.520;150.798;2022-12-31T03:34:51;100523.22;;;22.97;68.72
63399;BME280;49533;-34.520;150.798;2022-12-31T03:37:18;100520.88;;;23.03;68.75
63399;BME280;49533;-34.520;150.798;2022-12-31T03:39:45;100527.22;;;23.11;68.62
63399;BME280;49533;-34.520;150.798;2022-12-31T03:42:12;100533.56;;;23.18;68.25
63399;BME280;49533;-34.520;150.798;2022-12-31T03:44:39;100528.84;;;23.19;68.38
63399;BME280;49533;-34.520;150.798;2022-12-31T03:47:06;100531.59;;;23.22;68.25
63399;BME280;49533;-34.520;150.798;2022-12-31T03:49:33;100528.84;;;23.22;68.27
63399;BME280;49533;-34.520;150.798;2022-12-31T03:52:00;100533.59;;;23.26;68.48
63399;BME280;49533;-34.520;150.798;2022-12-31T03:54:28;100528.03;;;23.18;67.23
63399;BME280;49533;-34.520;150.798;2022-12-31T03:56:55;100520.91;;;23.14;67.52
63399;BME280;49533;-34.520;150.798;2022-12-31T03:59:23;100523.69;;;23.14;67.59
63399;BME280;49533;-34.520;150.798;2022-12-31T04:01:50;100525.25;;;23.15;67.88
63399;BME280;49533;-34.520;150.798;2022-12-31T04:04:17;100521.31;;;23.19;67.97
63399;BME280;49533;-34.520;150.798;2022-12-31T04:06:44;100514.19;;;23.22;67.62
63399;BME280;49533;-34.520;150.798;2022-12-31T04:09:11;100520.94;;;23.25;67.63
63399;BME280;49533;-34.520;150.798;2022-12-31T04:11:38;100519.34;;;23.27;67.67
63399;BME280;49533;-34.520;150.798;2022-12-31T04:14:05;100516.97;;;23.29;67.65
63399;BME280;49533;-34.520;150.798;2022-12-31T04:16:32;100508.66;;;23.29;67.29
63399;BME280;49533;-34.520;150.798;2022-12-31T04:18:59;100508.25;;;23.31;67.30
63399;BME280;49533;-34.520;150.798;2022-12-31T04:21:26;100501.13;;;23.30;67.14
63399;BME280;49533;-34.520;150.798;2022-12-31T04:23:54;100500.34;;;23.33;67.18
63399;BME280;49533;-34.520;150.798;2022-12-31T04:26:21;100504.69;;;23.34;67.45
63399;BME280;49533;-34.520;150.798;2022-12-31T04:28:48;100506.69;;;23.33;67.36
63399;BME280;49533;-34.520;150.798;2022-12-31T04:31:15;100507.47;;;23.37;67.18
63399;BME280;49533;-34.520;150.798;2022-12-31T04:33:42;100511.03;;;23.38;66.87
63399;BME280;49533;-34.520;150.798;2022-12-31T04:36:09;100517.38;;;23.38;66.87
63399;BME280;49533;-34.520;150.798;2022-12-31T04:38:36;100506.69;;;23.37;66.85
63399;BME280;49533;-34.520;150.798;2022-12-31T04:41:04;100505.13;;;23.39;66.61
63399;BME280;49533;-34.520;150.798;2022-12-31T04:43:48;100508.66;;;23.40;66.78
63399;BME280;49533;-34.520;150.798;2022-12-31T04:46:18;100502.72;;;23.41;66.72
63399;BME280;49533;-34.520;150.798;2022-12-31T04:48:45;100504.31;;;23.42;66.76
63399;BME280;49533;-34.520;150.798;2022-12-31T04:51:13;100501.53;;;23.39;66.60
63399;BME280;49533;-34.520;150.798;2022-12-31T04:53:40;100494.00;;;23.32;65.29
63399;BME280;49533;-34.520;150.798;2022-12-31T04:56:08;100497.97;;;23.38;65.81
63399;BME280;49533;-34.520;150.798;2022-12-31T04:58:36;100507.47;;;23.37;65.77
63399;BME280;49533;-34.520;150.798;2022-12-31T05:01:03;100486.06;;;23.41;65.63
63399;BME280;49533;-34.520;150.798;2022-12-31T05:03:31;100487.66;;;23.35;63.96
63399;BME280;49533;-34.520;150.798;2022-12-31T05:06:07;100494.41;;;23.34;64.96
63399;BME280;49533;-34.520;150.798;2022-12-31T05:08:34;100489.25;;;23.36;64.24
63399;BME280;49533;-34.520;150.798;2022-12-31T05:11:01;100491.66;;;23.34;64.39
63399;BME280;49533;-34.520;150.798;2022-12-31T05:13:28;100490.06;;;23.40;64.47
63399;BME280;49533;-34.520;150.798;2022-12-31T05:15:55;100489.66;;;23.38;64.41
63399;BME280;49533;-34.520;150.798;2022-12-31T05:18:23;100497.59;;;23.40;64.90
63399;BME280;49533;-34.520;150.798;2022-12-31T05:20:50;100496.00;;;23.50;65.43
63399;BME280;49533;-34.520;150.798;2022-12-31T05:23:18;100500.34;;;23.40;64.95
63399;BME280;49533;-34.520;150.798;2022-12-31T05:25:46;100493.22;;;23.46;65.28
63399;BME280;49533;-34.520;150.798;2022-12-31T05:28:15;100486.91;;;23.42;65.11
63399;BME280;49533;-34.520;150.798;2022-12-31T05:30:42;100489.25;;;23.43;65.07
63399;BME280;49533;-34.520;150.798;2022-12-31T05:33:09;100490.44;;;23.42;65.48
63399;BME280;49533;-34.520;150.798;2022-12-31T05:35:36;100496.38;;;23.34;65.92
63399;BME280;49533;-34.520;150.798;2022-12-31T05:38:04;100499.16;;;23.34;65.83
63399;BME280;49533;-34.520;150.798;2022-12-31T05:40:31;100494.41;;;23.31;66.30
63399;BME280;49533;-34.520;150.798;2022-12-31T05:42:58;100494.00;;;23.32;66.32
63399;BME280;49533;-34.520;150.798;2022-12-31T05:45:25;100503.50;;;23.28;66.48
63399;BME280;49533;-34.520;150.798;2022-12-31T05:47:52;100500.72;;;23.20;66.97
63399;BME280;49533;-34.520;150.798;2022-12-31T05:50:19;100496.78;;;23.32;66.80
63399;BME280;49533;-34.520;150.798;2022-12-31T05:52:46;100506.69;;;23.33;66.73
63399;BME280;49533;-34.520;150.798;2022-12-31T05:55:14;100505.13;;;23.39;66.60
63399;BME280;49533;-34.520;150.798;2022-12-31T05:57:41;100500.34;;;23.33;65.92
63399;BME280;49533;-34.520;150.798;2022-12-31T06:00:09;100497.19;;;23.27;65.72
63399;BME280;49533;-34.520;150.798;2022-12-31T06:02:36;100497.16;;;23.20;66.41
63399;BME280;49533;-34.520;150.798;2022-12-31T06:05:04;100488.44;;;23.18;66.57
63399;BME280;49533;-34.520;150.798;2022-12-31T06:07:31;100497.94;;;23.20;66.77
63399;BME280;49533;-34.520;150.798;2022-12-31T06:09:58;100493.59;;;23.23;66.67
63399;BME280;49533;-34.520;150.798;2022-12-31T06:12:25;100490.81;;;23.23;66.61
63399;BME280;49533;-34.520;150.798;2022-12-31T06:14:53;100490.03;;;23.12;67.34
63399;BME280;49533;-34.520;150.798;2022-12-31T06:17:20;100495.56;;;23.12;67.40
63399;BME280;49533;-34.520;150.798;2022-12-31T06:19:47;100493.97;;;23.18;67.37
63399;BME280;49533;-34.520;150.798;2022-12-31T06:22:15;100483.28;;;23.06;68.65
63399;BME280;49533;-34.520;150.798;2022-12-31T06:24:42;100486.03;;;23.06;69.09
63399;BME280;49533;-34.520;150.798;2022-12-31T06:27:09;100481.69;;;22.97;69.30
63399;BME280;49533;-34.520;150.798;2022-12-31T06:29:36;100474.16;;;23.05;68.89
63399;BME280;49533;-34.520;150.798;2022-12-31T06:32:04;100474.97;;;23.09;68.64
63399;BME280;49533;-34.520;150.798;2022-12-31T06:34:31;100478.53;;;23.10;68.56
63399;BME280;49533;-34.520;150.798;2022-12-31T06:36:58;100478.94;;;23.12;68.21
63399;BME280;49533;-34.520;150.798;2022-12-31T06:39:26;100484.44;;;22.97;68.47
63399;BME280;49533;-34.520;150.798;2022-12-31T06:41:53;100478.94;;;23.01;68.37
63399;BME280;49533;-34.520;150.798;2022-12-31T06:44:20;100481.69;;;22.97;68.68
63399;BME280;49533;-34.520;150.798;2022-12-31T06:46:48;100488.44;;;23.04;68.74
63399;BME280;49533;-34.520;150.798;2022-12-31T06:49:16;100493.16;;;22.99;68.74
63399;BME280;49533;-34.520;150.798;2022-12-31T06:51:43;100497.13;;;22.98;68.55
63399;BME280;49533;-34.520;150.798;2022-12-31T06:54:11;100492.72;;;22.94;68.07
63399;BME280;49533;-34.520;150.798;2022-12-31T06:56:39;100500.25;;;22.93;68.36
63399;BME280;49533;-34.520;150.798;2022-12-31T06:59:23;100501.44;;;22.96;67.92
63399;BME280;49533;-34.520;150.798;2022-12-31T07:02:16;100500.63;;;22.95;67.71
63399;BME280;49533;-34.520;150.798;2022-12-31T07:05:20;100497.06;;;22.91;67.36
63399;BME280;49533;-34.520;150.798;2022-12-31T07:10:59;100502.56;;;22.77;67.45
63399;BME280;49533;-34.520;150.798;2022-12-31T07:13:51;100498.63;;;22.82;67.68
63399;BME280;49533;-34.520;150.798;2022-12-31T07:16:46;100493.91;;;22.86;67.87
63399;BME280;49533;-34.520;150.798;2022-12-31T07:19:24;100503.03;;;22.93;67.88
63399;BME280;49533;-34.520;150.798;2022-12-31T07:21:57;100499.84;;;22.95;67.78
63399;BME280;49533;-34.520;150.798;2022-12-31T07:24:24;100508.22;;;22.98;67.84
63399;BME280;49533;-34.520;150.798;2022-12-31T07:27:14;100501.50;;;23.10;67.65
63399;BME280;49533;-34.520;150.798;2022-12-31T07:30:10;100492.78;;;23.05;68.36
63399;BME280;49533;-34.520;150.798;2022-12-31T07:32:58;100507.81;;;23.07;68.38
63399;BME280;49533;-34.520;150.798;2022-12-31T07:35:47;100504.63;;;22.98;68.80
63399;BME280;49533;-34.520;150.798;2022-12-31T07:41:36;100505.38;;;22.81;69.98
63399;BME280;49533;-34.520;150.798;2022-12-31T07:46:59;100507.69;;;22.75;71.14
63399;BME280;49533;-34.520;150.798;2022-12-31T07:49:29;100511.69;;;22.81;71.01
63399;BME280;49533;-34.520;150.798;2022-12-31T07:51:56;100512.41;;;22.67;71.80
63399;BME280;49533;-34.520;150.798;2022-12-31T07:54:24;100521.53;;;22.71;71.77
63399;BME280;49533;-34.520;150.798;2022-12-31T07:56:51;100513.59;;;22.66;71.70
63399;BME280;49533;-34.520;150.798;2022-12-31T07:59:46;100509.28;;;22.72;71.29
63399;BME280;49533;-34.520;150.798;2022-12-31T08:02:38;100511.25;;;22.68;71.53
63399;BME280;49533;-34.520;150.798;2022-12-31T08:05:31;100515.19;;;22.67;71.19
63399;BME280;49533;-34.520;150.798;2022-12-31T08:08:14;100518.44;;;22.87;70.30
63399;BME280;49533;-34.520;150.798;2022-12-31T08:10:58;100509.00;;;22.99;69.73
63399;BME280;49533;-34.520;150.798;2022-12-31T08:13:29;100510.59;;;23.04;69.41
63399;BME280;49533;-34.520;150.798;2022-12-31T08:15:58;100508.63;;;23.08;69.19
63399;BME280;49533;-34.520;150.798;2022-12-31T08:18:26;100516.13;;;23.11;68.99
63399;BME280;49533;-34.520;150.798;2022-12-31T08:21:13;100515.75;;;23.12;68.67
63399;BME280;49533;-34.520;150.798;2022-12-31T08:23:59;100519.31;;;23.13;68.82
63399;BME280;49533;-34.520;150.798;2022-12-31T08:26:40;100513.78;;;23.13;68.66
63399;BME280;49533;-34.520;150.798;2022-12-31T08:29:33;100518.94;;;23.14;68.50
63399;BME280;49533;-34.520;150.798;2022-12-31T08:32:16;100530.03;;;23.14;68.68
63399;BME280;49533;-34.520;150.798;2022-12-31T08:35:10;100529.59;;;23.16;68.43
63399;BME280;49533;-34.520;150.798;2022-12-31T08:37:53;100533.97;;;23.17;68.46
63399;BME280;49533;-34.520;150.798;2022-12-31T08:40:28;100536.34;;;23.15;68.65
63399;BME280;49533;-34.520;150.798;2022-12-31T08:43:16;100532.00;;;23.14;68.25
63399;BME280;49533;-34.520;150.798;2022-12-31T08:45:48;100544.66;;;23.15;68.28
63399;BME280;49533;-34.520;150.798;2022-12-31T08:48:29;100536.72;;;23.13;68.32
63399;BME280;49533;-34.520;150.798;2022-12-31T08:50:58;100535.94;;;23.13;68.10
63399;BME280;49533;-34.520;150.798;2022-12-31T08:53:26;100542.28;;;23.13;68.19
63399;BME280;49533;-34.520;150.798;2022-12-31T08:56:00;100540.69;;;23.12;68.20
63399;BME280;49533;-34.520;150.798;2022-12-31T08:58:58;100547.03;;;23.13;68.23
63399;BME280;49533;-34.520;150.798;2022-12-31T09:01:29;100561.28;;;23.15;67.99
63399;BME280;49533;-34.520;150.798;2022-12-31T09:04:19;100555.34;;;23.13;68.17
63399;BME280;49533;-34.520;150.798;2022-12-31T09:06:57;100558.13;;;23.13;68.20
63399;BME280;49533;-34.520;150.798;2022-12-31T09:09:42;100559.72;;;23.14;67.97
63399;BME280;49533;-34.520;150.798;2022-12-31T09:12:24;100567.63;;;23.12;68.08
63399;BME280;49533;-34.520;150.798;2022-12-31T09:15:03;100563.66;;;23.13;68.20
63399;BME280;49533;-34.520;150.798;2022-12-31T09:17:46;100577.09;;;23.11;68.04
63399;BME280;49533;-34.520;150.798;2022-12-31T09:20:26;100572.38;;;23.11;67.98
63399;BME280;49533;-34.520;150.798;2022-12-31T09:22:55;100570.00;;;23.10;68.12
63399;BME280;49533;-34.520;150.798;2022-12-31T09:25:23;100574.75;;;23.09;68.15
63399;BME280;49533;-34.520;150.798;2022-12-31T09:28:10;100576.31;;;23.07;68.16
63399;BME280;49533;-34.520;150.798;2022-12-31T09:30:50;100585.00;;;23.05;68.28
63399;BME280;49533;-34.520;150.798;2022-12-31T09:33:49;100576.31;;;23.07;68.24
63399;BME280;49533;-34.520;150.798;2022-12-31T09:36:24;100582.25;;;23.05;68.11
63399;BME280;49533;-34.520;150.798;2022-12-31T09:42:27;100574.72;;;23.06;68.75
63399;BME280;49533;-34.520;150.798;2022-12-31T09:45:20;100576.28;;;23.03;68.66
63399;BME280;49533;-34.520;150.798;2022-12-31T09:48:15;100582.66;;;23.04;69.04
63399;BME280;49533;-34.520;150.798;2022-12-31T09:50:58;100581.44;;;23.05;68.87
63399;BME280;49533;-34.520;150.798;2022-12-31T09:53:38;100577.09;;;23.04;68.91
63399;BME280;49533;-34.520;150.798;2022-12-31T09:56:22;100581.03;;;23.03;69.17
63399;BME280;49533;-34.520;150.798;2022-12-31T09:59:02;100591.34;;;23.02;69.02
63399;BME280;49533;-34.520;150.798;2022-12-31T10:01:56;100590.56;;;23.02;69.11
63399;BME280;49533;-34.520;150.798;2022-12-31T10:04:46;100600.44;;;23.03;69.25
63399;BME280;49533;-34.520;150.798;2022-12-31T10:07:32;100595.31;;;23.01;69.34
63399;BME280;49533;-34.520;150.798;2022-12-31T10:10:12;100599.25;;;23.00;69.29
63399;BME280;49533;-34.520;150.798;2022-12-31T10:13:00;100604.00;;;22.99;69.09
63399;BME280;49533;-34.520;150.798;2022-12-31T10:15:53;100604.75;;;22.96;69.05
63399;BME280;49533;-34.520;150.798;2022-12-31T10:18:38;100605.56;;;22.97;69.16
63399;BME280;49533;-34.520;150.798;2022-12-31T10:21:41;100607.53;;;22.96;69.16
63399;BME280;49533;-34.520;150.798;2022-12-31T10:24:44;100608.69;;;22.95;69.07
63399;BME280;49533;-34.520;150.798;2022-12-31T10:27:36;100610.66;;;22.95;69.27
63399;BME280;49533;-34.520;150.798;2022-12-31T10:30:18;100603.13;;;22.92;69.20
63399;BME280;49533;-34.520;150.798;2022-12-31T10:33:15;100613.84;;;22.93;69.27
63399;BME280;49533;-34.520;150.798;2022-12-31T10:36:07;100614.22;;;22.92;69.13
63399;BME280;49533;-34.520;150.798;2022-12-31T10:50:27;100616.94;;;22.85;69.35
63399;BME280;49533;-34.520;150.798;2022-12-31T10:56:07;100605.88;;;22.81;69.17
63399;BME280;49533;-34.520;150.798;2022-12-31T11:01:49;100614.59;;;22.83;69.06
63399;BME280;49533;-34.520;150.798;2022-12-31T11:04:37;100625.63;;;22.79;69.08
63399;BME280;49533;-34.520;150.798;2022-12-31T11:07:36;100626.03;;;22.82;69.03
63399;BME280;49533;-34.520;150.798;2022-12-31T11:10:43;100631.59;;;22.78;69.28
63399;BME280;49533;-34.520;150.798;2022-12-31T11:13:37;100619.69;;;22.74;69.14
63399;BME280;49533;-34.520;150.798;2022-12-31T11:16:22;100629.56;;;22.75;69.17
63399;BME280;49533;-34.520;150.798;2022-12-31T11:19:25;100628.78;;;22.74;69.22
63399;BME280;49533;-34.520;150.798;2022-12-31T11:22:23;100624.00;;;22.71;69.30
63399;BME280;49533;-34.520;150.798;2022-12-31T11:25:02;100630.34;;;22.72;69.29
63399;BME280;49533;-34.520;150.798;2022-12-31T11:27:49;100626.38;;;22.69;69.17
63399;BME280;49533;-34.520;150.798;2022-12-31T11:30:31;100634.25;;;22.67;69.30
63399;BME280;49533;-34.520;150.798;2022-12-31T11:33:26;100633.09;;;22.68;69.24
63399;BME280;49533;-34.520;150.798;2022-12-31T11:36:21;100629.13;;;22.66;69.30
63399;BME280;49533;-34.520;150.798;2022-12-31T11:42:02;100634.66;;;22.66;69.11
63399;BME280;49533;-34.520;150.798;2022-12-31T11:44:43;100630.28;;;22.65;69.14
63399;BME280;49533;-34.520;150.798;2022-12-31T11:50:27;100635.44;;;22.63;69.25
63399;BME280;49533;-34.520;150.798;2022-12-31T11:56:14;100626.31;;;22.62;69.41
63399;BME280;49533;-34.520;150.798;2022-12-31T11:58:47;100620.00;;;22.62;69.28
63399;BME280;49533;-34.520;150.798;2022-12-31T12:01:32;100617.63;;;22.60;69.20
63399;BME280;49533;-34.520;150.798;2022-12-31T12:04:02;100626.69;;;22.57;69.21
63399;BME280;49533;-34.520;150.798;2022-12-31T12:06:32;100619.19;;;22.57;69.37
63399;BME280;49533;-34.520;150.798;2022-12-31T12:09:05;100625.91;;;22.56;69.34
63399;BME280;49533;-34.520;150.798;2022-12-31T12:11:36;100629.06;;;22.55;69.62
63399;BME280;49533;-34.520;150.798;2022-12-31T12:16:55;100619.16;;;22.54;69.65
63399;BME280;49533;-34.520;150.798;2022-12-31T12:19:26;100621.53;;;22.52;69.41
63399;BME280;49533;-34.520;150.798;2022-12-31T12:21:54;100625.88;;;22.53;69.71
63399;BME280;49533;-34.520;150.798;2022-12-31T12:24:25;100613.63;;;22.50;69.55
63399;BME280;49533;-34.520;150.798;2022-12-31T12:26:53;100617.16;;;22.51;69.67
63399;BME280;49533;-34.520;150.798;2022-12-31T12:29:24;100617.97;;;22.51;69.74
63399;BME280;49533;-34.520;150.798;2022-12-31T12:32:01;100618.38;;;22.50;69.71
63399;BME280;49533;-34.520;150.798;2022-12-31T12:34:33;100620.31;;;22.49;69.72
63399;BME280;49533;-34.520;150.798;2022-12-31T12:37:02;100615.97;;;22.48;69.70
63399;BME280;49533;-34.520;150.798;2022-12-31T12:39:32;100609.66;;;22.48;69.74
63399;BME280;49533;-34.520;150.798;2022-12-31T12:42:07;100607.66;;;22.48;69.95
63399;BME280;49533;-34.520;150.798;2022-12-31T12:44:36;100604.47;;;22.46;69.92
63399;BME280;49533;-34.520;150.798;2022-12-31T12:47:05;100606.84;;;22.44;69.93
63399;BME280;49533;-34.520;150.798;2022-12-31T12:49:39;100602.13;;;22.45;70.00
63399;BME280;49533;-34.520;150.798;2022-12-31T12:52:26;100596.16;;;22.43;69.89
63399;BME280;49533;-34.520;150.798;2022-12-31T13:01:22;100598.91;;;22.39;70.07
63399;BME280;49533;-34.520;150.798;2022-12-31T13:04:12;100583.88;;;22.40;70.16
63399;BME280;49533;-34.520;150.798;2022-12-31T13:07:12;100586.66;;;22.40;69.96
63399;BME280;49533;-34.520;150.798;2022-12-31T13:10:02;100586.63;;;22.36;69.97
63399;BME280;49533;-34.520;150.798;2022-12-31T13:12:53;100579.09;;;22.33;70.51
63399;BME280;49533;-34.520;150.798;2022-12-31T13:15:33;100585.03;;;22.35;70.13
63399;BME280;49533;-34.520;150.798;2022-12-31T13:18:27;100578.31;;;22.33;70.54
63399;BME280;49533;-34.520;150.798;2022-12-31T13:21:22;100571.97;;;22.32;70.14
63399;BME280;49533;-34.520;150.798;2022-12-31T13:24:00;100567.59;;;22.31;70.17
63399;BME280;49533;-34.520;150.798;2022-12-31T13:26:41;100570.00;;;22.33;70.48
63399;BME280;49533;-34.520;150.798;2022-12-31T13:29:15;100568.00;;;22.30;70.31
63399;BME280;49533;-34.520;150.798;2022-12-31T13:31:43;100572.34;;;22.31;70.54
63399;BME280;49533;-34.520;150.798;2022-12-31T13:34:16;100558.88;;;22.26;70.54
63399;BME280;49533;-34.520;150.798;2022-12-31T13:46:47;100552.19;;;22.27;70.51
63399;BME280;49533;-34.520;150.798;2022-12-31T13:49:28;100550.16;;;22.24;70.54
63399;BME280;49533;-34.520;150.798;2022-12-31T13:55:02;100549.38;;;22.23;70.57
63399;BME280;49533;-34.520;150.798;2022-12-31T13:57:47;100554.91;;;22.23;70.45
63399;BME280;49533;-34.520;150.798;2022-12-31T14:00:22;100554.50;;;22.21;70.37
63399;BME280;49533;-34.520;150.798;2022-12-31T14:02:57;100555.31;;;22.22;70.83
63399;BME280;49533;-34.520;150.798;2022-12-31T14:05:33;100548.59;;;22.23;70.54